createdAt,value
2023-03-12T00:01:22.134Z,82.19
2023-03-12T00:03:51.020Z,82.02
2023-03-12T00:06:20.963Z,82.28
2023-03-12T00:08:55.155Z,82.31
2023-03-12T00:11:33.381Z,82.26
2023-03-12T00:14:01.818Z,82.36
2023-03-12T00:16:30.305Z,82.43
2023-03-12T00:19:01.521Z,82.38
2023-03-12T00:21:34.475Z,82.62
2023-03-12T00:24:02.719Z,82.75
2023-03-12T00:26:34.516Z,82.82
2023-03-12T00:29:08.379Z,82.56
2023-03-12T00:31:50.667Z,82.66
2023-03-12T00:34:19.133Z,82.76
2023-03-12T00:36:50.367Z,82.82
2023-03-12T00:39:41.589Z,82.96
2023-03-12T00:42:28.044Z,82.78
2023-03-12T00:44:58.486Z,82.87
2023-03-12T00:47:36.710Z,82.91
2023-03-12T00:51:00.970Z,82.98
2023-03-12T00:53:36.219Z,82.81
2023-03-12T00:56:06.632Z,82.80
2023-03-12T00:58:43.143Z,82.74
2023-03-12T01:01:14.479Z,83.35
2023-03-12T01:03:47.786Z,83.04
2023-03-12T01:06:18.609Z,82.83
2023-03-12T01:08:50.264Z,83.10
2023-03-12T01:11:20.795Z,82.83
2023-03-12T01:13:53.890Z,82.42
2023-03-12T01:16:22.464Z,82.45
2023-03-12T01:18:50.596Z,82.07
2023-03-12T01:21:18.681Z,82.49
2023-03-12T01:23:46.864Z,82.17
2023-03-12T01:26:15.007Z,82.14
2023-03-12T01:28:43.414Z,82.04
2023-03-12T01:31:16.884Z,81.87
2023-03-12T01:33:50.207Z,81.99
2023-03-12T01:36:28.615Z,81.96
2023-03-12T01:38:59.609Z,81.95
2023-03-12T01:41:32.494Z,82.00
2023-03-12T01:44:03.742Z,81.88
2023-03-12T01:46:43.054Z,81.73
2023-03-12T01:49:24.422Z,81.58
2023-03-12T01:52:04.795Z,81.61
2023-03-12T01:54:48.999Z,81.67
2023-03-12T01:57:23.743Z,81.54
2023-03-12T01:59:59.005Z,81.39
2023-03-12T02:02:29.802Z,81.61
2023-03-12T02:05:23.679Z,81.68
2023-03-12T02:07:52.159Z,81.54
2023-03-12T02:10:22.651Z,81.52
2023-03-12T02:12:50.889Z,82.03
2023-03-12T02:15:23.855Z,82.06
2023-03-12T02:17:55.302Z,81.95
2023-03-12T02:20:47.265Z,82.14
2023-03-12T02:23:42.361Z,81.91
2023-03-12T02:26:16.812Z,81.92
2023-03-12T02:28:49.357Z,82.47
2023-03-12T02:31:27.857Z,82.11
2023-03-12T02:33:55.979Z,82.09
2023-03-12T02:36:23.988Z,81.96
2023-03-12T02:38:54.500Z,81.73
2023-03-12T02:41:31.780Z,81.69
2023-03-12T02:44:20.014Z,81.61
2023-03-12T02:46:59.788Z,81.65
2023-03-12T02:49:34.581Z,81.49
2023-03-12T02:52:02.929Z,81.17
2023-03-12T02:54:31.816Z,81.34
2023-03-12T02:56:59.767Z,81.36
2023-03-12T02:59:29.661Z,80.65
2023-03-12T03:02:01.360Z,80.75
2023-03-12T03:04:34.748Z,80.66
2023-03-12T03:07:03.048Z,80.78
2023-03-12T03:09:32.014Z,80.69
2023-03-12T03:12:02.629Z,80.58
2023-03-12T03:14:31.850Z,80.81
2023-03-12T03:17:01.351Z,81.07
2023-03-12T03:19:29.488Z,81.00
2023-03-12T03:21:57.523Z,80.92
2023-03-12T03:24:25.771Z,80.93
2023-03-12T03:26:54.748Z,81.40
2023-03-12T03:29:22.719Z,81.40
2023-03-12T03:31:52.037Z,81.22
2023-03-12T03:34:22.346Z,81.54
2023-03-12T03:36:50.268Z,81.50
2023-03-12T03:39:18.680Z,82.00
2023-03-12T03:41:47.744Z,81.60
2023-03-12T03:44:19.071Z,81.84
2023-03-12T03:46:47.930Z,81.70
2023-03-12T03:49:16.979Z,81.88
2023-03-12T03:51:45.190Z,81.90
2023-03-12T03:54:16.210Z,82.04
2023-03-12T03:56:44.847Z,82.03
2023-03-12T03:59:13.681Z,82.15
2023-03-12T04:01:43.554Z,82.01
2023-03-12T04:04:11.590Z,82.61
2023-03-12T04:06:39.724Z,82.40
2023-03-12T04:09:09.864Z,81.86
2023-03-12T04:11:40.560Z,81.94
2023-03-12T04:14:09.227Z,81.77
2023-03-12T04:16:44.467Z,81.79
2023-03-12T04:19:12.687Z,81.99
2023-03-12T04:21:40.877Z,81.54
2023-03-12T04:24:17.036Z,81.49
2023-03-12T04:26:45.773Z,81.48
2023-03-12T04:29:15.315Z,81.39
2023-03-12T04:31:43.750Z,81.55
2023-03-12T04:34:14.478Z,81.55
2023-03-12T04:36:43.122Z,81.73
2023-03-12T04:39:11.172Z,81.85
2023-03-12T04:41:39.122Z,81.74
2023-03-12T04:44:15.759Z,81.75
2023-03-12T04:46:43.744Z,81.87
2023-03-12T04:49:17.720Z,82.02
2023-03-12T04:51:49.115Z,81.79
2023-03-12T04:54:17.420Z,82.11
2023-03-12T04:56:45.326Z,81.87
2023-03-12T04:59:14.215Z,82.10
2023-03-12T05:01:43.904Z,81.84
2023-03-12T05:04:19.138Z,81.83
2023-03-12T05:06:47.562Z,81.95
2023-03-12T05:09:15.546Z,81.76
2023-03-12T05:11:43.921Z,81.96
2023-03-12T05:14:12.705Z,82.40
2023-03-12T05:16:41.281Z,81.99
2023-03-12T05:19:09.832Z,82.16
2023-03-12T05:21:45.348Z,82.16
2023-03-12T05:24:13.367Z,82.30
2023-03-12T05:26:47.450Z,82.05
2023-03-12T05:29:21.591Z,81.92
2023-03-12T05:31:55.122Z,81.91
2023-03-12T05:34:23.153Z,82.05
2023-03-12T05:36:54.177Z,81.73
2023-03-12T05:39:29.666Z,82.16
2023-03-12T05:42:00.505Z,82.35
2023-03-12T05:44:31.834Z,82.22
2023-03-12T05:46:59.928Z,82.31
2023-03-12T05:49:28.708Z,82.58
2023-03-12T05:51:57.748Z,82.66
2023-03-12T05:54:27.066Z,82.32
2023-03-12T05:56:56.500Z,82.61
2023-03-12T05:59:27.287Z,82.49
2023-03-12T06:01:58.446Z,82.55
2023-03-12T06:04:30.079Z,82.53
2023-03-12T06:06:58.592Z,82.11
2023-03-12T06:09:29.484Z,82.17
2023-03-12T06:11:57.544Z,82.18
2023-03-12T06:14:30.668Z,82.02
2023-03-12T06:17:00.024Z,82.04
2023-03-12T06:19:32.371Z,81.89
2023-03-12T06:22:04.269Z,82.03
2023-03-12T06:24:34.991Z,81.92
2023-03-12T06:27:06.402Z,81.75
2023-03-12T06:29:34.383Z,81.95
2023-03-12T06:32:02.428Z,81.53
2023-03-12T06:34:30.601Z,81.17
2023-03-12T06:36:58.893Z,81.38
2023-03-12T06:39:29.619Z,81.17
2023-03-12T06:41:57.570Z,80.78
2023-03-12T06:44:28.159Z,80.86
2023-03-12T06:46:56.854Z,80.71
2023-03-12T06:49:25.580Z,80.66
2023-03-12T06:51:55.143Z,80.23
2023-03-12T06:54:23.373Z,79.88
2023-03-12T06:56:51.404Z,79.74
2023-03-12T06:59:21.628Z,79.65
2023-03-12T07:01:49.842Z,79.65
2023-03-12T07:04:17.871Z,79.12
2023-03-12T07:06:50.500Z,78.66
2023-03-12T07:09:19.760Z,78.26
2023-03-12T07:11:48.035Z,77.85
2023-03-12T07:14:16.126Z,77.57
2023-03-12T07:16:46.255Z,76.95
2023-03-12T07:19:14.481Z,76.86
2023-03-12T07:21:42.668Z,77.35
2023-03-12T07:24:10.642Z,76.86
2023-03-12T07:26:39.926Z,76.70
2023-03-12T07:29:08.420Z,76.27
2023-03-12T07:31:36.580Z,75.40
2023-03-12T07:34:06.324Z,75.22
2023-03-12T07:36:36.265Z,75.06
2023-03-12T07:39:04.578Z,74.75
2023-03-12T07:41:35.247Z,74.50
2023-03-12T07:44:03.782Z,73.84
2023-03-12T07:46:32.213Z,72.90
2023-03-12T07:49:01.572Z,72.60
2023-03-12T07:51:30.864Z,72.61
2023-03-12T07:53:58.951Z,72.46
2023-03-12T07:56:27.776Z,72.15
2023-03-12T07:58:55.957Z,71.65
2023-03-12T08:01:25.437Z,71.93
2023-03-12T08:03:53.756Z,71.27
2023-03-12T08:06:22.133Z,70.38
2023-03-12T08:08:50.571Z,70.01
2023-03-12T08:11:19.298Z,69.06
2023-03-12T08:13:48.723Z,68.70
2023-03-12T08:16:16.851Z,68.36
2023-03-12T08:18:45.445Z,66.97
2023-03-12T08:21:16.487Z,67.07
2023-03-12T08:23:44.599Z,65.67
2023-03-12T08:26:12.854Z,65.77
2023-03-12T08:28:41.077Z,64.93
2023-03-12T08:31:09.511Z,63.99
2023-03-12T08:33:41.131Z,63.65
2023-03-12T08:36:10.790Z,62.99
2023-03-12T08:38:42.078Z,63.26
2023-03-12T08:41:10.330Z,63.20
2023-03-12T08:43:38.645Z,60.90
2023-03-12T08:46:06.804Z,61.72
2023-03-12T08:48:35.064Z,60.99
2023-03-12T08:51:04.302Z,61.97
2023-03-12T08:53:35.514Z,61.47
2023-03-12T08:56:04.742Z,61.22
2023-03-12T08:58:32.863Z,61.60
2023-03-12T09:01:02.238Z,60.11
2023-03-12T09:03:30.350Z,60.24
2023-03-12T09:06:14.672Z,60.71
2023-03-12T09:08:46.633Z,61.27
2023-03-12T09:11:17.990Z,60.93
2023-03-12T09:16:35.696Z,61.92
2023-03-12T09:19:04.575Z,62.37
2023-03-12T09:21:32.535Z,62.68
2023-03-12T09:24:00.647Z,62.40
2023-03-12T09:26:28.852Z,63.27
2023-03-12T09:28:57.943Z,62.42
2023-03-12T09:31:26.529Z,62.27
2023-03-12T09:33:54.753Z,62.49
2023-03-12T09:36:23.150Z,61.97
2023-03-12T09:38:51.549Z,63.15
2023-03-12T09:41:34.263Z,63.37
2023-03-12T09:44:23.791Z,62.69
2023-03-12T09:46:57.796Z,61.26
2023-03-12T09:49:43.118Z,62.34
2023-03-12T09:52:51.001Z,61.35
2023-03-12T09:55:22.673Z,61.37
2023-03-12T09:57:52.728Z,60.36
2023-03-12T10:00:26.519Z,61.26
2023-03-12T10:03:23.718Z,63.02
2023-03-12T10:06:10.829Z,61.07
2023-03-12T10:09:16.851Z,58.73
2023-03-12T10:11:58.472Z,59.26
2023-03-12T10:15:04.768Z,58.85
2023-03-12T10:18:08.849Z,58.61
2023-03-12T10:20:53.065Z,60.14
2023-03-12T10:23:36.139Z,59.12
2023-03-12T10:26:18.476Z,58.60
2023-03-12T10:28:59.200Z,59.11
2023-03-12T10:31:51.972Z,58.56
2023-03-12T10:35:00.798Z,57.50
2023-03-12T10:37:44.968Z,57.35
2023-03-12T10:40:24.469Z,56.91
2023-03-12T10:42:53.732Z,58.10
2023-03-12T10:46:41.632Z,57.58
2023-03-12T10:49:30.567Z,57.41
2023-03-12T10:52:02.653Z,57.60
2023-03-12T10:54:44.627Z,57.35
2023-03-12T10:57:15.422Z,56.27
2023-03-12T10:59:48.147Z,56.77
2023-03-12T11:02:43.604Z,56.79
2023-03-12T11:05:25.843Z,56.52
2023-03-12T11:07:55.195Z,56.53
2023-03-12T11:10:43.857Z,55.64
2023-03-12T11:13:42.192Z,56.68
2023-03-12T11:16:17.336Z,54.69
2023-03-12T11:19:13.007Z,54.22
2023-03-12T11:22:02.068Z,54.77
2023-03-12T11:24:31.728Z,54.00
2023-03-12T11:27:28.852Z,54.78
2023-03-12T11:29:56.979Z,54.56
2023-03-12T11:32:42.134Z,54.26
2023-03-12T11:35:53.609Z,54.55
2023-03-12T11:38:43.511Z,54.50
2023-03-12T11:42:03.583Z,55.20
2023-03-12T11:45:15.505Z,53.75
2023-03-12T11:48:05.716Z,54.10
2023-03-12T11:50:55.958Z,53.51
2023-03-12T11:53:55.261Z,53.73
2023-03-12T12:03:36.976Z,53.54
2023-03-12T12:06:22.617Z,53.32
2023-03-12T12:09:39.600Z,51.53
2023-03-12T12:12:44.555Z,52.13
2023-03-12T12:15:33.932Z,52.13
2023-03-12T12:18:13.904Z,52.33
2023-03-12T12:21:09.969Z,53.62
2023-03-12T12:24:04.206Z,50.91
2023-03-12T12:35:38.489Z,50.78
2023-03-12T12:41:48.849Z,49.08
2023-03-12T12:53:49.333Z,46.66
2023-03-12T13:08:38.470Z,48.27
2023-03-12T13:09:08.129Z,47.18
2023-03-12T13:15:47.095Z,47.84
2023-03-12T13:18:29.542Z,46.88
2023-03-12T13:21:25.009Z,47.02
2023-03-12T13:24:33.922Z,48.62
2023-03-12T13:27:39.373Z,47.80
2023-03-12T13:30:54.763Z,47.17
2023-03-12T13:33:48.451Z,46.91
2023-03-12T13:36:16.450Z,46.78
2023-03-12T13:39:34.434Z,47.33
2023-03-12T13:42:25.067Z,46.21
2023-03-12T13:44:53.867Z,45.93
2023-03-12T13:47:36.949Z,45.27
2023-03-12T13:50:15.346Z,44.24
2023-03-12T13:53:27.022Z,45.15
2023-03-12T13:56:20.832Z,45.11
2023-03-12T13:59:17.757Z,43.31
2023-03-12T14:02:04.811Z,43.55
2023-03-12T14:04:53.700Z,42.84
2023-03-12T14:08:27.749Z,43.14
2023-03-12T14:11:57.599Z,44.03
2023-03-12T14:14:48.039Z,44.53
2023-03-12T14:17:29.189Z,44.56
2023-03-12T14:20:04.797Z,44.98
2023-03-12T14:22:37.272Z,45.90
2023-03-12T14:25:16.105Z,46.87
2023-03-12T14:27:48.563Z,47.80
2023-03-12T14:30:25.071Z,48.12
2023-03-12T14:33:01.264Z,48.64
2023-03-12T14:35:38.676Z,48.00
2023-03-12T14:38:32.800Z,48.26
2023-03-12T14:41:15.755Z,47.91
2023-03-12T14:43:43.899Z,48.19
2023-03-12T14:46:24.730Z,48.21
2023-03-12T14:48:57.215Z,48.31
2023-03-12T14:51:35.762Z,48.01
2023-03-12T14:54:04.110Z,48.22
2023-03-12T14:56:35.937Z,47.79
2023-03-12T14:59:28.089Z,47.57
2023-03-12T15:02:11.864Z,48.03
2023-03-12T15:04:41.280Z,48.28
2023-03-12T15:07:17.961Z,48.84
2023-03-12T15:09:51.727Z,48.77
2023-03-12T15:12:28.702Z,48.99
2023-03-12T15:15:28.549Z,49.50
2023-03-12T15:17:58.496Z,49.71
2023-03-12T15:20:27.153Z,50.17
2023-03-12T15:22:56.022Z,50.56
2023-03-12T15:25:28.430Z,50.33
2023-03-12T15:28:11.284Z,50.54
2023-03-12T15:30:39.992Z,50.19
2023-03-12T15:33:26.214Z,50.76
2023-03-12T15:36:19.158Z,50.81
2023-03-12T15:39:00.203Z,52.00
2023-03-12T15:41:43.364Z,53.27
2023-03-12T15:44:21.764Z,52.38
2023-03-12T15:47:15.851Z,52.59
2023-03-12T15:49:48.436Z,53.03
2023-03-12T15:52:19.175Z,53.03
2023-03-12T15:55:14.774Z,53.03
2023-03-12T15:57:56.319Z,53.84
2023-03-12T16:00:29.621Z,53.77
2023-03-12T16:03:00.193Z,54.07
2023-03-12T16:05:39.812Z,53.97
2023-03-12T16:08:29.867Z,54.41
2023-03-12T16:10:57.932Z,54.85
2023-03-12T16:13:31.214Z,55.30
2023-03-12T16:16:02.018Z,55.16
2023-03-12T16:18:30.585Z,55.38
2023-03-12T16:21:01.519Z,55.42
2023-03-12T16:23:32.761Z,55.64
2023-03-12T16:26:02.194Z,55.89
2023-03-12T16:28:30.709Z,56.39
2023-03-12T16:30:59.665Z,56.53
2023-03-12T16:33:32.709Z,56.95
2023-03-12T16:36:01.073Z,57.29
2023-03-12T16:38:29.325Z,57.86
2023-03-12T16:40:58.047Z,58.44
2023-03-12T16:43:29.956Z,58.48
2023-03-12T16:46:00.520Z,58.59
2023-03-12T16:48:31.331Z,58.61
2023-03-12T16:50:59.281Z,58.14
2023-03-12T16:53:29.493Z,58.54
2023-03-12T16:56:02.365Z,58.90
2023-03-12T16:58:33.048Z,59.59
2023-03-12T17:01:01.175Z,59.23
2023-03-12T17:03:40.085Z,59.37
2023-03-12T17:06:15.036Z,59.63
2023-03-12T17:08:43.664Z,59.62
2023-03-12T17:11:24.731Z,59.91
2023-03-12T17:14:03.678Z,59.94
2023-03-12T17:16:31.616Z,59.96
2023-03-12T17:18:59.620Z,59.85
2023-03-12T17:21:27.679Z,59.49
2023-03-12T17:23:55.728Z,59.48
2023-03-12T17:26:23.981Z,60.04
2023-03-12T17:28:52.189Z,59.56
2023-03-12T17:31:21.187Z,59.61
2023-03-12T17:33:52.054Z,59.51
2023-03-12T17:36:27.680Z,59.82
2023-03-12T17:38:56.490Z,60.31
2023-03-12T17:41:26.906Z,60.59
2023-03-12T17:43:59.186Z,60.86
2023-03-12T17:46:30.865Z,61.44
2023-03-12T17:48:59.586Z,61.75
2023-03-12T17:51:27.660Z,61.68
2023-03-12T17:53:55.818Z,61.30
2023-03-12T17:56:23.790Z,60.78
2023-03-12T17:58:51.891Z,61.01
2023-03-12T18:01:19.860Z,60.60
2023-03-12T18:03:49.987Z,61.00
2023-03-12T18:06:19.759Z,61.39
2023-03-12T18:08:48.274Z,60.94
2023-03-12T18:11:16.488Z,61.08
2023-03-12T18:13:48.352Z,60.98
2023-03-12T18:16:17.788Z,61.59
2023-03-12T18:18:46.172Z,61.40
2023-03-12T18:21:14.049Z,61.42
2023-03-12T18:23:43.855Z,61.82
2023-03-12T18:26:12.377Z,61.79
2023-03-12T18:28:40.357Z,62.27
2023-03-12T18:31:09.342Z,62.07
2023-03-12T18:33:38.066Z,61.74
2023-03-12T18:36:06.609Z,62.40
2023-03-12T18:38:35.347Z,61.71
2023-03-12T18:41:10.398Z,61.93
2023-03-12T18:43:41.237Z,61.89
2023-03-12T18:46:09.656Z,62.36
2023-03-12T18:48:37.928Z,62.42
2023-03-12T18:51:06.263Z,62.69
2023-03-12T18:53:34.172Z,62.67
2023-03-12T18:56:02.797Z,62.48
2023-03-12T18:58:30.807Z,62.01
2023-03-12T19:00:59.452Z,61.94
2023-03-12T19:03:27.367Z,61.21
2023-03-12T19:06:07.797Z,61.75
2023-03-12T19:08:37.344Z,59.43
2023-03-12T19:11:09.848Z,59.85
2023-03-12T19:13:38.159Z,60.24
2023-03-12T19:16:11.896Z,59.60
2023-03-12T19:18:39.908Z,59.55
2023-03-12T19:21:08.330Z,59.72
2023-03-12T19:23:36.515Z,59.53
2023-03-12T19:26:05.202Z,59.97
2023-03-12T19:28:34.196Z,60.19
2023-03-12T19:31:10.008Z,60.27
2023-03-12T19:33:38.082Z,60.89
2023-03-12T19:36:11.831Z,61.66
2023-03-12T19:38:40.114Z,61.71
2023-03-12T19:41:09.176Z,61.80
2023-03-12T19:43:38.062Z,61.59
2023-03-12T19:46:09.074Z,61.93
2023-03-12T19:48:37.259Z,61.90
2023-03-12T19:51:10.232Z,61.82
2023-03-12T19:53:38.624Z,62.13
2023-03-12T19:56:07.610Z,62.33
2023-03-12T19:58:35.557Z,62.06
2023-03-12T20:01:04.231Z,62.33
2023-03-12T20:03:32.848Z,62.30
2023-03-12T20:06:00.957Z,62.34
2023-03-12T20:08:31.886Z,62.64
2023-03-12T20:11:10.051Z,61.82
2023-03-12T20:13:38.842Z,61.64
2023-03-12T20:16:16.505Z,61.33
2023-03-12T20:18:46.738Z,61.72
2023-03-12T20:21:14.643Z,63.94
2023-03-12T20:23:42.746Z,62.06
2023-03-12T20:26:11.187Z,61.42
2023-03-12T20:28:39.125Z,60.80
2023-03-12T20:31:17.151Z,60.90
2023-03-12T20:33:45.110Z,60.95
2023-03-12T20:36:14.375Z,61.07
2023-03-12T20:38:43.631Z,60.64
2023-03-12T20:41:15.939Z,61.62
2023-03-12T20:43:48.428Z,61.99
2023-03-12T20:46:19.001Z,62.55
2023-03-12T20:48:46.957Z,63.72
2023-03-12T20:51:15.873Z,64.14
2023-03-12T20:53:46.886Z,64.76
2023-03-12T20:56:14.800Z,65.78
2023-03-12T20:58:43.721Z,66.31
2023-03-12T21:01:11.684Z,66.24
2023-03-12T21:03:39.652Z,66.78
2023-03-12T21:06:07.780Z,67.83
2023-03-12T21:08:35.700Z,69.28
2023-03-12T21:11:07.721Z,72.57
2023-03-12T21:13:36.425Z,74.07
2023-03-12T21:16:06.884Z,74.49
2023-03-12T21:18:35.264Z,75.19
2023-03-12T21:21:05.773Z,75.88
2023-03-12T21:23:35.136Z,77.22
2023-03-12T21:26:09.094Z,77.03
2023-03-12T21:28:37.316Z,78.72
2023-03-12T21:31:08.914Z,79.83
2023-03-12T21:33:37.210Z,80.41
2023-03-12T21:36:08.802Z,80.86
2023-03-12T21:38:38.363Z,80.43
2023-03-12T21:41:15.848Z,81.26
2023-03-12T21:43:45.470Z,82.77
2023-03-12T21:46:19.151Z,82.84
2023-03-12T21:48:48.243Z,84.39
2023-03-12T21:51:17.852Z,85.00
2023-03-12T21:53:45.789Z,85.47
2023-03-12T21:56:13.729Z,85.82
2023-03-12T21:58:41.697Z,86.89
2023-03-12T22:01:18.381Z,87.11
2023-03-12T22:03:46.948Z,87.57
2023-03-12T22:06:16.241Z,88.14
2023-03-12T22:08:48.080Z,87.39
2023-03-12T22:11:16.532Z,87.63
2023-03-12T22:13:44.627Z,88.36
2023-03-12T22:16:14.179Z,87.97
2023-03-12T22:18:45.215Z,88.07
2023-03-12T22:21:18.263Z,87.68
2023-03-12T22:23:47.946Z,87.92
2023-03-12T22:26:16.387Z,87.69
2023-03-12T22:28:55.911Z,88.30
2023-03-12T22:31:26.880Z,87.87
2023-03-12T22:33:56.544Z,88.46
2023-03-12T22:36:24.916Z,88.77
2023-03-12T22:38:52.888Z,88.93
2023-03-12T22:41:24.411Z,89.26
2023-03-12T22:43:56.013Z,89.90
2023-03-12T22:46:27.418Z,90.44
2023-03-12T22:48:59.729Z,90.11
2023-03-12T22:51:29.408Z,89.78
2023-03-12T22:53:57.699Z,90.00
2023-03-12T22:56:25.966Z,90.34
2023-03-12T22:58:55.977Z,89.92
2023-03-12T23:01:24.447Z,90.76
2023-03-12T23:03:52.760Z,91.74
2023-03-12T23:06:26.699Z,91.13
2023-03-12T23:08:55.165Z,91.22
2023-03-12T23:11:25.300Z,91.12
2023-03-12T23:13:55.382Z,91.77
2023-03-12T23:16:26.615Z,92.25
2023-03-12T23:18:56.247Z,92.20
2023-03-12T23:21:25.225Z,92.69
2023-03-12T23:23:53.839Z,91.97
2023-03-12T23:26:27.839Z,92.32
2023-03-12T23:28:58.420Z,92.80
2023-03-12T23:31:29.556Z,92.23
2023-03-12T23:33:58.475Z,91.40
2023-03-12T23:36:27.189Z,92.12
2023-03-12T23:38:55.395Z,92.06
2023-03-12T23:41:26.685Z,91.72
2023-03-12T23:43:56.808Z,91.77
2023-03-12T23:46:27.171Z,91.53
2023-03-12T23:48:55.721Z,91.94
2023-03-12T23:51:30.232Z,92.31
2023-03-12T23:54:01.173Z,91.80
2023-03-12T23:56:39.131Z,91.92
2023-03-12T23:59:14.002Z,91.23
